Terminal Aerodrome Forecast
Issued by NWS Blacksburg, VA

Home | Current Version | Previous Version | Text Only | Print | Product List | Glossary On
Versions: 1 2 3 4 5 6 7 8 9 10 11 12 13 14 15 16 17 18 19 20 21 22
000
FTUS41 KRNK 232320
TAFLYH
TAF
KLYH 232320Z 2400/2424 02013KT P6SM OVC017
     FM240400 33008KT P6SM BKN020
     FM240900 32006KT P6SM BKN090
     FM241400 31009KT P6SM SCT090
     FM241700 30013KT P6SM SCT090
     FM242200 29009KT P6SM FEW090=

USA.gov is the U.S. government's official web portal to all federal, state and local government web resources and services.